createdAt,value
2018-03-28T00:02:54.813Z,26.60
2018-03-28T00:07:55.829Z,29.80
2018-03-28T00:12:56.822Z,28.67
2018-03-28T00:17:58.579Z,25.67
2018-03-28T00:22:59.575Z,28.20
2018-03-28T00:28:00.571Z,28.20
2018-03-28T00:33:01.607Z,27.67
2018-03-28T00:38:02.584Z,31.50
2018-03-28T00:43:03.588Z,30.17
2018-03-28T00:48:05.331Z,28.10
2018-03-28T00:53:06.328Z,25.27
2018-03-28T00:58:07.352Z,26.70
2018-03-28T01:03:09.091Z,26.70
2018-03-28T01:08:10.086Z,25.33
2018-03-28T01:13:11.178Z,25.77
2018-03-28T01:18:12.175Z,25.47
2018-03-28T01:23:13.164Z,25.50
2018-03-28T01:28:14.183Z,26.00
2018-03-28T01:33:15.157Z,23.60
2018-03-28T01:38:16.156Z,26.33
2018-03-28T01:43:17.166Z,27.00
2018-03-28T01:48:18.208Z,26.27
2018-03-28T01:53:19.190Z,25.37
2018-03-28T01:58:20.207Z,27.37
2018-03-28T02:03:21.219Z,25.00
2018-03-28T02:08:22.227Z,26.10
2018-03-28T02:13:23.276Z,24.03
2018-03-28T02:18:24.306Z,24.10
2018-03-28T02:23:26.050Z,21.80
2018-03-28T02:28:27.040Z,22.30
2018-03-28T02:33:28.772Z,21.77
2018-03-28T02:38:29.853Z,20.57
2018-03-28T02:43:30.907Z,22.07
2018-03-28T02:48:31.991Z,22.60
2018-03-28T02:53:33.212Z,21.23
2018-03-28T02:58:34.527Z,21.20
2018-03-28T03:03:35.660Z,22.30
2018-03-28T03:08:37.615Z,21.40
2018-03-28T03:13:38.881Z,21.00
2018-03-28T03:18:40.092Z,22.07
2018-03-28T03:23:41.287Z,21.37
2018-03-28T03:28:42.359Z,20.60
2018-03-28T03:33:43.633Z,19.30
2018-03-28T03:38:44.696Z,17.67
2018-03-28T03:43:45.832Z,17.87
2018-03-28T03:48:46.896Z,19.23
2018-03-28T03:53:47.957Z,19.50
2018-03-28T03:58:49.202Z,16.87
2018-03-28T04:03:50.308Z,16.40
2018-03-28T04:08:52.067Z,18.63
2018-03-28T04:13:53.419Z,17.60
2018-03-28T04:18:54.440Z,16.83
2018-03-28T04:23:56.252Z,15.73
2018-03-28T04:28:57.380Z,16.43
2018-03-28T04:33:58.538Z,17.00
2018-03-28T04:38:59.685Z,18.27
2018-03-28T04:44:01.484Z,17.70
2018-03-28T04:49:02.718Z,17.03
2018-03-28T04:54:03.865Z,19.37
2018-03-28T04:59:05.743Z,18.57
2018-03-28T05:04:07.597Z,20.70
2018-03-28T05:09:08.586Z,18.17
2018-03-28T05:14:09.603Z,16.80
2018-03-28T05:19:10.631Z,16.57
2018-03-28T05:24:12.359Z,15.37
2018-03-28T05:29:13.436Z,15.83
2018-03-28T05:34:15.315Z,15.57
2018-03-28T05:39:16.636Z,16.20
2018-03-28T05:44:18.769Z,15.93
2018-03-28T05:49:19.932Z,16.00
2018-03-28T05:54:20.990Z,13.13
2018-03-28T05:59:21.966Z,13.70
2018-03-28T06:04:23.691Z,13.43
2018-03-28T06:09:24.681Z,13.07
2018-03-28T06:14:25.679Z,13.13
2018-03-28T06:19:26.699Z,9.67
2018-03-28T06:24:28.438Z,8.47
2018-03-28T06:29:29.439Z,6.30
2018-03-28T06:34:31.166Z,6.40
2018-03-28T06:39:32.157Z,8.60
2018-03-28T06:44:33.163Z,9.30
2018-03-28T06:49:34.168Z,9.93
2018-03-28T06:54:35.176Z,9.37
2018-03-28T06:59:36.176Z,10.80
2018-03-28T07:04:37.183Z,10.47
2018-03-28T07:09:38.408Z,11.80
2018-03-28T07:14:39.610Z,11.77
2018-03-28T07:19:40.604Z,10.30
2018-03-28T07:24:41.604Z,9.70
2018-03-28T07:29:42.640Z,9.70
2018-03-28T07:34:43.736Z,10.03
2018-03-28T07:39:44.763Z,9.70
2018-03-28T07:44:45.753Z,10.00
2018-03-28T07:49:46.861Z,9.20
2018-03-28T07:54:48.042Z,8.90
2018-03-28T07:59:49.123Z,8.80
2018-03-28T08:04:50.388Z,8.43
2018-03-28T08:09:51.560Z,9.07
2018-03-28T08:14:52.675Z,8.93
2018-03-28T08:19:53.770Z,9.27
2018-03-28T08:24:54.789Z,9.00
2018-03-28T08:29:55.981Z,10.13
2018-03-28T08:34:57.304Z,11.20
2018-03-28T08:39:58.364Z,10.90
2018-03-28T08:44:59.467Z,10.30
2018-03-28T08:50:00.531Z,9.17
2018-03-28T08:55:01.640Z,10.30
2018-03-28T09:00:02.648Z,8.87
2018-03-28T09:05:03.861Z,8.80
2018-03-28T09:10:04.860Z,9.37
2018-03-28T09:15:06.715Z,8.47
2018-03-28T09:20:07.752Z,8.20
2018-03-28T09:25:08.845Z,8.47
2018-03-28T09:30:10.653Z,8.07
2018-03-28T09:35:12.150Z,7.87
2018-03-28T09:40:13.418Z,8.20
2018-03-28T09:45:14.436Z,8.43
2018-03-28T09:50:15.615Z,8.70
2018-03-28T09:55:16.886Z,9.83
2018-03-28T10:00:24.238Z,10.10
2018-03-28T10:05:31.732Z,10.03
2018-03-28T10:10:32.981Z,9.50
2018-03-28T10:15:34.199Z,8.23
2018-03-28T10:20:35.620Z,8.13
2018-03-28T10:25:36.887Z,7.50
2018-03-28T10:30:37.976Z,6.50
2018-03-28T10:35:39.821Z,6.30
2018-03-28T10:40:41.001Z,6.10
2018-03-28T10:45:42.097Z,6.50
2018-03-28T10:50:43.107Z,5.77
2018-03-28T10:55:44.111Z,5.77
2018-03-28T11:00:45.109Z,6.90
2018-03-28T11:05:46.148Z,4.93
2018-03-28T11:10:47.139Z,5.00
2018-03-28T11:15:48.248Z,4.90
2018-03-28T11:20:49.287Z,5.10
2018-03-28T11:25:51.096Z,4.63
2018-03-28T11:30:52.135Z,4.40
2018-03-28T11:35:53.157Z,5.30
2018-03-28T11:40:55.068Z,4.40
2018-03-28T11:45:56.064Z,4.07
2018-03-28T11:50:57.079Z,3.90
2018-03-28T11:55:58.823Z,3.40
2018-03-28T12:00:59.831Z,3.67
2018-03-28T12:06:00.823Z,3.83
2018-03-28T12:11:01.801Z,3.90
2018-03-28T12:16:02.819Z,3.30
2018-03-28T12:21:03.785Z,3.30
2018-03-28T12:26:04.772Z,3.07
2018-03-28T12:31:06.514Z,3.50
2018-03-28T12:36:07.511Z,2.70
2018-03-28T12:41:08.499Z,3.03
2018-03-28T12:46:09.491Z,3.07
2018-03-28T12:51:10.518Z,2.73
2018-03-28T12:56:12.220Z,2.80
2018-03-28T13:01:13.275Z,2.43
2018-03-28T13:06:14.259Z,2.63
2018-03-28T13:11:15.272Z,2.67
2018-03-28T13:16:16.309Z,2.77
2018-03-28T13:21:17.311Z,2.87
2018-03-28T13:26:18.311Z,3.27
2018-03-28T13:31:20.059Z,3.77
2018-03-28T13:36:21.180Z,3.50
2018-03-28T13:41:23.097Z,4.00
2018-03-28T13:46:24.163Z,4.50
2018-03-28T13:51:25.163Z,4.30
2018-03-28T13:56:26.260Z,4.07
2018-03-28T14:01:27.378Z,3.90
2018-03-28T14:06:28.416Z,5.53
2018-03-28T14:11:29.609Z,5.63
2018-03-28T14:16:31.671Z,5.07
2018-03-28T14:21:32.806Z,5.60
2018-03-28T14:26:35.228Z,5.27
2018-03-28T14:31:36.262Z,4.93
2018-03-28T14:36:37.274Z,4.80
2018-03-28T14:41:38.280Z,5.20
2018-03-28T14:46:40.059Z,3.83
2018-03-28T14:51:41.878Z,3.50
2018-03-28T14:56:42.944Z,4.70
2018-03-28T15:01:44.047Z,4.43
2018-03-28T15:06:45.787Z,4.40
2018-03-28T15:11:46.968Z,4.93
2018-03-28T15:16:48.045Z,5.03
2018-03-28T15:21:49.817Z,4.60
2018-03-28T15:26:51.648Z,4.80
2018-03-28T15:31:52.759Z,4.60
2018-03-28T15:36:54.491Z,5.40
2018-03-28T15:41:55.547Z,4.83
2018-03-28T15:46:56.632Z,5.40
2018-03-28T15:51:57.637Z,4.80
2018-03-28T15:56:58.684Z,6.33
2018-03-28T16:01:59.785Z,5.07
2018-03-28T16:07:01.583Z,5.63
2018-03-28T16:12:02.586Z,5.80
2018-03-28T16:17:03.675Z,6.37
2018-03-28T16:22:05.464Z,6.57
2018-03-28T16:27:06.516Z,6.33
2018-03-28T16:32:10.609Z,5.00
2018-03-28T16:37:11.599Z,4.77
2018-03-28T16:42:12.607Z,4.40
2018-03-28T16:47:14.698Z,4.63
2018-03-28T16:52:16.619Z,3.80
2018-03-28T16:57:17.616Z,4.70
2018-03-28T17:02:18.902Z,3.87
2018-03-28T17:07:20.222Z,4.00
2018-03-28T17:12:21.278Z,4.47
2018-03-28T17:17:22.645Z,4.20
2018-03-28T17:22:23.862Z,3.77
2018-03-28T17:27:25.004Z,3.80
2018-03-28T17:32:26.191Z,4.00
2018-03-28T17:37:27.235Z,3.33
2018-03-28T17:42:28.998Z,3.70
2018-03-28T17:47:30.924Z,3.70
2018-03-28T17:52:31.966Z,3.40
2018-03-28T17:57:33.003Z,3.50
2018-03-28T18:02:34.128Z,3.87
2018-03-28T18:07:35.229Z,4.13
2018-03-28T18:12:36.240Z,3.10
2018-03-28T18:17:37.208Z,2.80
2018-03-28T18:22:38.347Z,3.60
2018-03-28T18:27:40.763Z,3.17
2018-03-28T18:32:41.883Z,2.90
2018-03-28T18:37:43.090Z,3.17
2018-03-28T18:42:44.196Z,3.60
2018-03-28T18:47:45.196Z,4.00
2018-03-28T18:52:46.364Z,3.97
2018-03-28T18:57:47.367Z,3.63
2018-03-28T19:02:48.427Z,4.00
2018-03-28T19:07:49.540Z,4.70
2018-03-28T19:12:50.721Z,4.20
2018-03-28T19:17:51.804Z,4.10
2018-03-28T19:22:52.925Z,3.33
2018-03-28T19:27:54.694Z,3.67
2018-03-28T19:32:55.752Z,4.03
2018-03-28T19:37:56.780Z,5.33
2018-03-28T19:42:57.979Z,4.03
2018-03-28T19:47:58.999Z,4.30
2018-03-28T19:53:00.114Z,3.83
2018-03-28T19:58:01.188Z,3.20
2018-03-28T20:03:02.278Z,2.87
2018-03-28T20:08:03.334Z,3.23
2018-03-28T20:13:04.405Z,2.70
2018-03-28T20:18:05.417Z,2.10
2018-03-28T20:23:06.413Z,1.93
2018-03-28T20:28:07.429Z,1.80
2018-03-28T20:33:09.294Z,1.80
2018-03-28T20:38:10.528Z,1.80
2018-03-28T20:43:11.639Z,1.63
2018-03-28T20:48:12.847Z,1.50
2018-03-28T20:53:13.857Z,1.13
2018-03-28T20:58:14.854Z,1.37
2018-03-28T21:03:15.857Z,1.40
2018-03-28T21:08:17.723Z,1.30
2018-03-28T21:13:18.771Z,1.20
2018-03-28T21:18:19.772Z,1.20
2018-03-28T21:23:21.132Z,1.20
2018-03-28T21:28:22.932Z,1.40
2018-03-28T21:33:24.108Z,1.80
2018-03-28T21:38:25.164Z,1.53
2018-03-28T21:43:26.266Z,1.50
2018-03-28T21:48:27.285Z,1.70
2018-03-28T21:53:28.338Z,1.70
2018-03-28T21:58:29.670Z,1.53
2018-03-28T22:03:31.479Z,3.03
2018-03-28T22:08:32.559Z,2.03
2018-03-28T22:13:34.458Z,2.30
2018-03-28T22:18:36.231Z,2.07
2018-03-28T22:23:37.235Z,2.30
2018-03-28T22:28:38.248Z,1.90
2018-03-28T22:33:39.233Z,2.23
2018-03-28T22:38:40.971Z,2.20
2018-03-28T22:43:41.962Z,2.57
2018-03-28T22:48:43.695Z,3.13
2018-03-28T22:53:44.686Z,2.80
2018-03-28T22:58:46.431Z,2.80
2018-03-28T23:03:47.433Z,3.10
2018-03-28T23:08:48.427Z,3.50
2018-03-28T23:13:49.416Z,4.63
2018-03-28T23:18:50.437Z,4.90
2018-03-28T23:23:51.458Z,5.00
2018-03-28T23:28:52.479Z,5.17
2018-03-28T23:33:53.473Z,5.00
2018-03-28T23:38:55.207Z,5.30
2018-03-28T23:43:56.202Z,5.60
2018-03-28T23:48:57.951Z,5.70
2018-03-28T23:53:59.703Z,5.50
2018-03-28T23:59:00.705Z,5.40
